Station Historical Data
Daily Summary for March 26, 2012 Units:  English    Metric   Both
« Previous Day
Next Day »
Daily Weekly Monthly Yearly Custom
  High: Low: Average:
Temperature: 75.5 °F 52.8 °F 63.8 °F
Dew Point: 58.3 °F 50.0 °F 53.3 °F
Humidity: 94% 44% 71%
Wind Speed: 11.0mph 0.0mph 3.5mph
Wind Gust: 17.0mph - -
Wind- - SSE
Pressure: 30.10 in 29.99 in -
Precipitation: 0.00 in    
Historical Graphs
 
 
Tabular Data for March 26, 2012
Time Temperature Dew Point Pressure Wind Wind Speed Wind Gust Humidity Rainfall Rate (Hourly) Conditions
00:00 58.6 °F 53.5 °F 30.00 in North 2.0 mph 3.0 mph 83% 0.00 in
00:01 58.6 °F 53.5 °F 30.00 in North 2.0 mph 3.0 mph 83% 0.00 in
00:03 58.5 °F 53.4 °F 30.00 in NNE 2.0 mph 4.0 mph 83% 0.00 in
00:08 58.4 °F 53.3 °F 30.00 in NNW 2.0 mph 3.0 mph 83% 0.00 in
00:13 58.2 °F 53.1 °F 30.00 in North 3.0 mph 4.0 mph 83% 0.00 in
00:18 58.0 °F 53.2 °F 30.00 in NNE 3.0 mph 4.0 mph 84% 0.00 in
00:23 58.1 °F 53.3 °F 30.00 in NNW 3.0 mph 5.0 mph 84% 0.00 in
00:28 58.1 °F 53.3 °F 30.00 in North 3.0 mph 4.0 mph 84% 0.00 in
00:33 58.0 °F 53.2 °F 30.00 in North 2.0 mph 3.0 mph 84% 0.00 in
00:38 57.9 °F 53.1 °F 30.00 in North 3.0 mph 3.0 mph 84% 0.00 in
00:43 57.7 °F 52.9 °F 30.00 in North 4.0 mph 4.0 mph 84% 0.00 in
00:48 57.5 °F 53.0 °F 29.99 in NNW 3.0 mph 4.0 mph 85% 0.00 in
00:53 57.4 °F 52.9 °F 29.99 in NNW 2.0 mph 4.0 mph 85% 0.00 in
00:58 57.4 °F 52.9 °F 29.99 in NNW 3.0 mph 4.0 mph 85% 0.00 in
01:03 57.4 °F 52.9 °F 29.99 in North 2.0 mph 3.0 mph 85% 0.00 in
01:08 57.5 °F 53.0 °F 29.99 in NNW 4.0 mph 4.0 mph 85% 0.00 in
01:13 57.5 °F 53.0 °F 29.99 in NNW 4.0 mph 5.0 mph 85% 0.00 in
01:18 57.6 °F 53.1 °F 30.00 in NNW 4.0 mph 5.0 mph 85% 0.00 in
01:23 57.5 °F 53.0 °F 29.99 in NNW 3.0 mph 5.0 mph 85% 0.00 in
01:28 57.6 °F 53.1 °F 30.00 in NW 3.0 mph 4.0 mph 85% 0.00 in
01:33 57.6 °F 53.1 °F 30.00 in NNW 2.0 mph 4.0 mph 85% 0.00 in
01:38 57.7 °F 53.2 °F 30.00 in NNW 1.0 mph 4.0 mph 85% 0.00 in
01:43 57.6 °F 53.1 °F 30.00 in North 2.0 mph 3.0 mph 85% 0.00 in
01:48 57.4 °F 52.9 °F 30.00 in Calm   2.0 mph 85% 0.00 in
01:53 57.1 °F 53.0 °F 30.00 in Calm   1.0 mph 86% 0.00 in
01:58 56.8 °F 52.7 °F 29.99 in Calm   1.0 mph 86% 0.00 in
02:03 56.6 °F 52.8 °F 30.00 in NNE 1.0 mph 1.0 mph 87% 0.00 in
02:08 56.5 °F 52.7 °F 30.00 in Calm   1.0 mph 87% 0.00 in
02:13 56.2 °F 52.4 °F 30.00 in Calm     87% 0.00 in
02:18 55.7 °F 52.2 °F 30.00 in Calm     88% 0.00 in
02:23 55.4 °F 52.2 °F 30.00 in Calm     89% 0.00 in
02:28 55.4 °F 52.5 °F 30.00 in Calm   1.0 mph 90% 0.00 in
02:33 55.6 °F 52.7 °F 30.00 in Calm   1.0 mph 90% 0.00 in
02:39 55.6 °F 52.4 °F 30.00 in Calm   1.0 mph 89% 0.00 in
02:44 55.5 °F 52.3 °F 30.00 in Calm     89% 0.00 in
02:49 55.2 °F 52.3 °F 30.00 in Calm     90% 0.00 in
02:54 55.0 °F 52.1 °F 30.00 in Calm   1.0 mph 90% 0.00 in
02:59 55.0 °F 52.4 °F 30.00 in Calm   1.0 mph 91% 0.00 in
03:04 55.0 °F 52.1 °F 30.00 in North 1.0 mph 1.0 mph 90% 0.00 in
03:09 55.0 °F 52.4 °F 30.00 in North 1.0 mph 1.0 mph 91% 0.00 in
03:14 54.9 °F 52.3 °F 30.00 in North 1.0 mph 1.0 mph 91% 0.00 in
03:19 54.5 °F 51.9 °F 30.00 in Calm   1.0 mph 91% 0.00 in
03:24 54.3 °F 51.7 °F 30.00 in North 1.0 mph 1.0 mph 91% 0.00 in
03:29 54.1 °F 51.5 °F 30.00 in Calm   1.0 mph 91% 0.00 in
03:34 53.9 °F 51.6 °F 30.00 in North 1.0 mph 1.0 mph 92% 0.00 in
03:39 54.1 °F 51.8 °F 30.00 in Calm   2.0 mph 92% 0.00 in
03:44 54.1 °F 51.8 °F 29.99 in Calm     92% 0.00 in
03:49 54.2 °F 51.9 °F 29.99 in NNE 1.0 mph 1.0 mph 92% 0.00 in
03:54 54.3 °F 52.0 °F 29.99 in North 1.0 mph 2.0 mph 92% 0.00 in
03:59 54.3 °F 52.0 °F 29.99 in NNW 1.0 mph 2.0 mph 92% 0.00 in
04:04 54.3 °F 52.0 °F 29.99 in NNW 1.0 mph 1.0 mph 92% 0.00 in
04:09 54.2 °F 51.9 °F 30.00 in Calm   1.0 mph 92% 0.00 in
04:14 53.9 °F 51.6 °F 30.00 in North 1.0 mph 1.0 mph 92% 0.00 in
04:19 53.9 °F 51.6 °F 30.00 in NNW 1.0 mph 3.0 mph 92% 0.00 in
04:24 53.9 °F 51.6 °F 29.99 in North 1.0 mph 3.0 mph 92% 0.00 in
04:29 53.8 °F 51.5 °F 30.00 in NNW 1.0 mph 2.0 mph 92% 0.00 in
04:34 53.7 °F 51.4 °F 30.00 in NNW 1.0 mph 2.0 mph 92% 0.00 in
04:39 53.3 °F 51.0 °F 30.00 in NNW 1.0 mph 1.0 mph 92% 0.00 in
04:44 53.1 °F 51.1 °F 30.00 in NNW 1.0 mph 1.0 mph 93% 0.00 in
04:50 53.2 °F 51.2 °F 30.00 in NNW 1.0 mph 1.0 mph 93% 0.00 in
04:55 53.1 °F 51.1 °F 30.00 in NNW 1.0 mph 1.0 mph 93% 0.00 in
05:00 52.9 °F 50.9 °F 30.00 in NNW 1.0 mph 1.0 mph 93% 0.00 in
05:05 52.9 °F 50.9 °F 30.00 in NNW 1.0 mph 1.0 mph 93% 0.00 in
05:10 52.8 °F 50.8 °F 30.00 in NNW 1.0 mph 1.0 mph 93% 0.00 in
05:15 52.8 °F 51.1 °F 30.00 in NNE 1.0 mph 2.0 mph 94% 0.00 in
05:20 52.9 °F 51.2 °F 29.99 in NNE 1.0 mph 1.0 mph 94% 0.00 in
05:25 53.0 °F 51.3 °F 29.99 in NNW 2.0 mph 2.0 mph 94% 0.00 in
05:30 53.2 °F 51.5 °F 29.99 in NNW 1.0 mph 2.0 mph 94% 0.00 in
05:35 53.2 °F 51.5 °F 30.00 in North 2.0 mph 2.0 mph 94% 0.00 in
05:40 53.3 °F 51.6 °F 30.00 in North 2.0 mph 2.0 mph 94% 0.00 in
05:45 53.3 °F 51.6 °F 29.99 in North 2.0 mph 3.0 mph 94% 0.00 in
05:50 53.3 °F 51.6 °F 30.00 in NNW 2.0 mph 3.0 mph 94% 0.00 in
05:55 53.3 °F 51.6 °F 29.99 in North 1.0 mph 2.0 mph 94% 0.00 in
06:00 53.3 °F 51.6 °F 29.99 in North 1.0 mph 2.0 mph 94% 0.00 in
06:05 53.2 °F 51.5 °F 29.99 in North 2.0 mph 2.0 mph 94% 0.00 in
06:06 53.2 °F 51.5 °F 29.99 in North 2.0 mph 2.0 mph 94% 0.00 in
06:11 53.2 °F 51.5 °F 29.99 in NNW 2.0 mph 3.0 mph 94% 0.00 in
06:16 53.2 °F 51.5 °F 30.00 in NNW 2.0 mph 4.0 mph 94% 0.00 in
06:21 53.1 °F 51.4 °F 30.00 in North 4.0 mph 4.0 mph 94% 0.00 in
06:26 53.0 °F 51.3 °F 30.00 in NNW 4.0 mph 4.0 mph 94% 0.00 in
06:31 52.9 °F 51.2 °F 30.01 in NNW 2.0 mph 5.0 mph 94% 0.00 in
06:36 52.8 °F 51.1 °F 30.01 in NNW 2.0 mph 4.0 mph 94% 0.00 in
06:41 52.8 °F 51.1 °F 30.01 in NNW 2.0 mph 3.0 mph 94% 0.00 in
06:46 52.9 °F 51.2 °F 30.01 in NNW 2.0 mph 3.0 mph 94% 0.00 in
06:51 52.9 °F 51.2 °F 30.01 in North 1.0 mph 2.0 mph 94% 0.00 in
06:56 53.0 °F 51.3 °F 30.01 in NNE 1.0 mph 2.0 mph 94% 0.00 in
07:01 53.0 °F 51.3 °F 30.02 in NNW 2.0 mph 3.0 mph 94% 0.00 in
07:06 53.1 °F 51.4 °F 30.02 in NNW 2.0 mph 3.0 mph 94% 0.00 in
07:11 53.1 °F 51.4 °F 30.02 in North 1.0 mph 2.0 mph 94% 0.00 in
07:16 53.0 °F 51.3 °F 30.02 in North 2.0 mph 2.0 mph 94% 0.00 in
07:21 53.1 °F 51.4 °F 30.02 in North 1.0 mph 2.0 mph 94% 0.00 in
07:26 53.2 °F 51.5 °F 30.02 in NNE 2.0 mph 2.0 mph 94% 0.00 in
07:32 53.2 °F 51.5 °F 30.02 in North 2.0 mph 3.0 mph 94% 0.00 in
07:37 53.2 °F 51.5 °F 30.03 in North 2.0 mph 4.0 mph 94% 0.00 in
07:42 53.0 °F 51.3 °F 30.03 in North 2.0 mph 3.0 mph 94% 0.00 in
07:47 53.0 °F 51.3 °F 30.03 in North 2.0 mph 4.0 mph 94% 0.00 in
07:52 52.9 °F 51.2 °F 30.03 in NNW 2.0 mph 4.0 mph 94% 0.00 in
07:57 52.8 °F 51.1 °F 30.03 in NNW 3.0 mph 3.0 mph 94% 0.00 in
08:02 52.8 °F 51.1 °F 30.04 in North 2.0 mph 4.0 mph 94% 0.00 in
08:07 52.9 °F 51.2 °F 30.04 in North 2.0 mph 4.0 mph 94% 0.00 in
08:12 53.2 °F 51.5 °F 30.04 in North 2.0 mph 3.0 mph 94% 0.00 in
08:17 53.5 °F 51.8 °F 30.04 in NNW 1.0 mph 3.0 mph 94% 0.00 in
08:22 53.9 °F 52.2 °F 30.05 in North 3.0 mph 4.0 mph 94% 0.00 in
08:27 54.3 °F 52.6 °F 30.05 in North 2.0 mph 3.0 mph 94% 0.00 in
08:32 54.7 °F 52.7 °F 30.05 in North 3.0 mph 4.0 mph 93% 0.00 in
08:37 55.0 °F 53.0 °F 30.05 in NNW 3.0 mph 4.0 mph 93% 0.00 in
08:42 55.5 °F 53.5 °F 30.05 in NNW 4.0 mph 6.0 mph 93% 0.00 in
08:47 55.9 °F 53.6 °F 30.05 in NNW 3.0 mph 5.0 mph 92% 0.00 in
08:52 56.3 °F 54.0 °F 30.06 in NNW 4.0 mph 6.0 mph 92% 0.00 in
08:57 56.7 °F 54.4 °F 30.06 in NW 4.0 mph 8.0 mph 92% 0.00 in
09:02 57.2 °F 54.6 °F 30.06 in North 5.0 mph 7.0 mph 91% 0.00 in
09:07 57.6 °F 55.0 °F 30.06 in North 4.0 mph 6.0 mph 91% 0.00 in
09:12 58.1 °F 55.2 °F 30.06 in NNE 8.0 mph 8.0 mph 90% 0.00 in
09:17 58.6 °F 55.7 °F 30.07 in North 4.0 mph 6.0 mph 90% 0.00 in
09:22 59.0 °F 55.8 °F 30.07 in NNE 4.0 mph 7.0 mph 89% 0.00 in
09:27 59.3 °F 56.1 °F 30.07 in NNE 3.0 mph 5.0 mph 89% 0.00 in
09:32 59.7 °F 55.8 °F 30.07 in NNE 3.0 mph 6.0 mph 87% 0.00 in
09:37 60.3 °F 56.4 °F 30.07 in NNE 5.0 mph 7.0 mph 87% 0.00 in
09:42 60.7 °F 56.5 °F 30.08 in NE 3.0 mph 9.0 mph 86% 0.00 in
09:47 61.0 °F 56.8 °F 30.08 in NNE 5.0 mph 7.0 mph 86% 0.00 in
09:53 61.6 °F 57.4 °F 30.08 in North 3.0 mph 5.0 mph 86% 0.00 in
09:58 62.1 °F 57.5 °F 30.08 in NNE 3.0 mph 6.0 mph 85% 0.00 in
10:03 62.6 °F 57.4 °F 30.08 in NNW 4.0 mph 6.0 mph 83% 0.00 in
10:08 63.0 °F 57.4 °F 30.08 in NE 6.0 mph 7.0 mph 82% 0.00 in
10:13 63.3 °F 57.0 °F 30.09 in NNE 5.0 mph 10.0 mph 80% 0.00 in
10:18 63.9 °F 56.9 °F 30.09 in NNE 8.0 mph 12.0 mph 78% 0.00 in
10:23 64.4 °F 57.4 °F 30.09 in North 8.0 mph 9.0 mph 78% 0.00 in
10:28 64.8 °F 57.4 °F 30.09 in NE 9.0 mph 12.0 mph 77% 0.00 in
10:33 65.2 °F 56.7 °F 30.09 in NE 8.0 mph 9.0 mph 74% 0.00 in
10:38 65.5 °F 57.7 °F 30.09 in NNE 5.0 mph 8.0 mph 76% 0.00 in
10:43 66.2 °F 56.9 °F 30.09 in NE 6.0 mph 7.0 mph 72% 0.00 in
10:48 66.6 °F 57.3 °F 30.09 in NNE 9.0 mph 9.0 mph 72% 0.00 in
10:53 66.6 °F 56.1 °F 30.09 in NE 9.0 mph 12.0 mph 69% 0.00 in
10:58 66.7 °F 56.6 °F 30.09 in NE 10.0 mph 10.0 mph 70% 0.00 in
11:03 66.8 °F 56.7 °F 30.09 in NE 10.0 mph 13.0 mph 70% 0.00 in
11:08 66.6 °F 55.7 °F 30.09 in NE 9.0 mph 15.0 mph 68% 0.00 in
11:13 66.8 °F 55.1 °F 30.09 in ENE 9.0 mph 12.0 mph 66% 0.00 in
11:18 67.0 °F 55.3 °F 30.10 in NNE 5.0 mph 17.0 mph 66% 0.00 in
11:23 67.1 °F 55.4 °F 30.10 in NNE 8.0 mph 11.0 mph 66% 0.00 in
11:28 67.4 °F 55.7 °F 30.10 in NNE 11.0 mph 12.0 mph 66% 0.00 in
11:34 67.6 °F 55.4 °F 30.10 in NE 5.0 mph 10.0 mph 65% 0.00 in
11:39 67.8 °F 55.2 °F 30.10 in NE 5.0 mph 12.0 mph 64% 0.00 in
11:44 68.0 °F 55.8 °F 30.10 in NNE 8.0 mph 12.0 mph 65% 0.00 in
11:49 68.2 °F 55.1 °F 30.09 in North 10.0 mph 11.0 mph 63% 0.00 in
11:54 68.3 °F 55.7 °F 30.09 in East 9.0 mph 12.0 mph 64% 0.00 in
11:59 68.6 °F 56.0 °F 30.09 in NNE 6.0 mph 10.0 mph 64% 0.00 in
12:05 68.6 °F 55.1 °F 30.09 in NNE 7.0 mph 12.0 mph 62% 0.00 in
12:10 68.3 °F 55.7 °F 30.09 in NE 7.0 mph 8.0 mph 64% 0.00 in
12:15 68.9 °F 56.2 °F 30.09 in NNW 3.0 mph 7.0 mph 64% 0.00 in
12:20 69.3 °F 55.7 °F 30.09 in NE 3.0 mph 8.0 mph 62% 0.00 in
12:25 69.3 °F 57.5 °F 30.09 in NNE 8.0 mph 9.0 mph 66% 0.00 in
12:30 68.9 °F 55.4 °F 30.09 in NNE 6.0 mph 12.0 mph 62% 0.00 in
12:35 68.9 °F 56.2 °F 30.09 in NNW 4.0 mph 10.0 mph 64% 0.00 in
12:40 69.3 °F 56.6 °F 30.09 in NE 11.0 mph 11.0 mph 64% 0.00 in
12:45 69.6 °F 56.5 °F 30.09 in NE 6.0 mph 11.0 mph 63% 0.00 in
12:50 70.0 °F 57.7 °F 30.09 in North 5.0 mph 6.0 mph 65% 0.00 in
12:55 70.2 °F 56.1 °F 30.09 in North 11.0 mph 11.0 mph 61% 0.00 in
13:00 70.0 °F 57.3 °F 30.09 in North 7.0 mph 11.0 mph 64% 0.00 in
13:05 69.5 °F 57.2 °F 30.09 in NW 7.0 mph 10.0 mph 65% 0.00 in
13:06 69.5 °F 57.2 °F 30.09 in North 7.0 mph 10.0 mph 65% 0.00 in
13:11 69.8 °F 56.7 °F 30.09 in NE 6.0 mph 9.0 mph 63% 0.00 in
13:16 70.5 °F 56.4 °F 30.09 in ENE 5.0 mph 10.0 mph 61% 0.00 in
13:21 71.0 °F 57.3 °F 30.08 in NE 3.0 mph 9.0 mph 62% 0.00 in
13:26 71.3 °F 56.2 °F 30.08 in NE 8.0 mph 14.0 mph 59% 0.00 in
13:31 71.1 °F 56.5 °F 30.08 in North 4.0 mph 9.0 mph 60% 0.00 in
13:36 71.6 °F 57.0 °F 30.08 in NNE 7.0 mph 9.0 mph 60% 0.00 in
13:41 71.4 °F 56.8 °F 30.08 in NNW 5.0 mph 11.0 mph 60% 0.00 in
13:46 71.2 °F 57.1 °F 30.08 in NNE 5.0 mph 9.0 mph 61% 0.00 in
13:51 71.6 °F 58.3 °F 30.08 in NNE 8.0 mph 8.0 mph 63% 0.00 in
13:56 71.8 °F 55.8 °F 30.07 in NW 5.0 mph 8.0 mph 57% 0.00 in
14:01 72.0 °F 57.4 °F 30.08 in NNW 6.0 mph 9.0 mph 60% 0.00 in
14:06 71.7 °F 57.1 °F 30.07 in NNW 5.0 mph 9.0 mph 60% 0.00 in
14:11 72.1 °F 56.5 °F 30.07 in NW 8.0 mph 12.0 mph 58% 0.00 in
14:16 71.6 °F 56.5 °F 30.07 in NNW 4.0 mph 7.0 mph 59% 0.00 in
14:21 72.4 °F 57.3 °F 30.07 in NNE 9.0 mph 10.0 mph 59% 0.00 in
14:26 72.3 °F 55.7 °F 30.07 in NNE 3.0 mph 7.0 mph 56% 0.00 in
14:31 72.7 °F 57.6 °F 30.07 in East 1.0 mph 4.0 mph 59% 0.00 in
14:37 73.1 °F 57.0 °F 30.06 in North 6.0 mph 7.0 mph 57% 0.00 in
14:42 73.2 °F 56.1 °F 30.06 in NE 2.0 mph 6.0 mph 55% 0.00 in
14:47 73.3 °F 57.7 °F 30.06 in NW 5.0 mph 10.0 mph 58% 0.00 in
14:52 73.4 °F 55.8 °F 30.06 in NNE 6.0 mph 12.0 mph 54% 0.00 in
14:57 73.5 °F 55.9 °F 30.06 in North 4.0 mph 8.0 mph 54% 0.00 in
15:02 73.9 °F 58.2 °F 30.06 in North 7.0 mph 8.0 mph 58% 0.00 in
15:07 74.1 °F 57.4 °F 30.06 in North 7.0 mph 10.0 mph 56% 0.00 in
15:12 73.5 °F 54.3 °F 30.06 in NE 4.0 mph 9.0 mph 51% 0.00 in
15:17 73.6 °F 57.0 °F 30.05 in NNW 5.0 mph 5.0 mph 56% 0.00 in
15:22 73.9 °F 56.7 °F 30.05 in North 3.0 mph 8.0 mph 55% 0.00 in
15:27 74.0 °F 56.3 °F 30.05 in NNW 7.0 mph 9.0 mph 54% 0.00 in
15:32 74.2 °F 56.0 °F 30.05 in NNE 4.0 mph 8.0 mph 53% 0.00 in
15:37 74.3 °F 56.1 °F 30.04 in NNE 7.0 mph 10.0 mph 53% 0.00 in
15:43 73.9 °F 55.7 °F 30.04 in NNE 8.0 mph 8.0 mph 53% 0.00 in
15:48 73.7 °F 56.0 °F 30.04 in NNE 5.0 mph 9.0 mph 54% 0.00 in
15:53 73.8 °F 55.6 °F 30.04 in NNW 7.0 mph 9.0 mph 53% 0.00 in
15:58 74.2 °F 56.0 °F 30.03 in WNW 1.0 mph 7.0 mph 53% 0.00 in
16:03 74.8 °F 56.0 °F 30.03 in NNE 5.0 mph 10.0 mph 52% 0.00 in
16:08 74.6 °F 55.8 °F 30.03 in NNE 4.0 mph 9.0 mph 52% 0.00 in
16:13 74.6 °F 55.8 °F 30.03 in North 9.0 mph 11.0 mph 52% 0.00 in
16:18 74.4 °F 54.6 °F 30.03 in NW 8.0 mph 12.0 mph 50% 0.00 in
16:23 74.7 °F 54.3 °F 30.03 in NNE 5.0 mph 7.0 mph 49% 0.00 in
16:28 74.8 °F 54.4 °F 30.03 in North 4.0 mph 10.0 mph 49% 0.00 in
16:33 74.8 °F 54.9 °F 30.03 in NE 8.0 mph 9.0 mph 50% 0.00 in
16:38 74.8 °F 55.5 °F 30.03 in NNW 4.0 mph 8.0 mph 51% 0.00 in
16:43 74.8 °F 53.2 °F 30.03 in NNW 4.0 mph 10.0 mph 47% 0.00 in
16:44 74.8 °F 53.8 °F 30.03 in NNE 9.0 mph 10.0 mph 48% 0.00 in
16:49 75.0 °F 54.6 °F 30.02 in North 3.0 mph 7.0 mph 49% 0.00 in
16:54 75.0 °F 55.7 °F 30.02 in NNE 4.0 mph 9.0 mph 51% 0.00 in
16:59 75.2 °F 54.8 °F 30.02 in NNW 4.0 mph 9.0 mph 49% 0.00 in
17:04 75.1 °F 54.1 °F 30.02 in NW 9.0 mph 12.0 mph 48% 0.00 in
17:09 75.1 °F 55.2 °F 30.02 in NNE 5.0 mph 11.0 mph 50% 0.00 in
17:14 75.1 °F 55.2 °F 30.01 in North 3.0 mph 7.0 mph 50% 0.00 in
17:19 75.2 °F 54.8 °F 30.01 in North 7.0 mph 11.0 mph 49% 0.00 in
17:25 75.2 °F 54.8 °F 30.01 in NNW 3.0 mph 8.0 mph 49% 0.00 in
17:30 75.5 °F 55.6 °F 30.01 in North 7.0 mph 10.0 mph 50% 0.00 in
17:35 75.2 °F 53.6 °F 30.01 in NNE 5.0 mph 8.0 mph 47% 0.00 in
17:40 75.1 °F 54.1 °F 30.01 in NE 7.0 mph 10.0 mph 48% 0.00 in
17:45 75.3 °F 53.7 °F 30.01 in North 7.0 mph 10.0 mph 47% 0.00 in
17:50 75.0 °F 53.4 °F 30.01 in NNE 4.0 mph 8.0 mph 47% 0.00 in
17:55 75.1 °F 54.1 °F 30.01 in North 8.0 mph 9.0 mph 48% 0.00 in
18:00 75.0 °F 52.8 °F 30.01 in NNW 7.0 mph 9.0 mph 46% 0.00 in
18:05 74.9 °F 52.2 °F 30.01 in WNW 8.0 mph 11.0 mph 45% 0.00 in
18:10 74.8 °F 52.7 °F 30.01 in NNW 7.0 mph 9.0 mph 46% 0.00 in
18:15 74.7 °F 52.6 °F 30.01 in NNW 4.0 mph 10.0 mph 46% 0.00 in
18:16 74.7 °F 52.6 °F 30.01 in NNW 6.0 mph 10.0 mph 46% 0.00 in
18:21 74.8 °F 54.9 °F 30.01 in NW 4.0 mph 5.0 mph 50% 0.00 in
18:26 74.9 °F 54.5 °F 30.01 in NNW 6.0 mph 8.0 mph 49% 0.00 in
18:31 74.7 °F 51.4 °F 30.01 in NNW 5.0 mph 9.0 mph 44% 0.00 in
18:36 74.5 °F 51.2 °F 30.00 in North 5.0 mph 7.0 mph 44% 0.00 in
18:41 74.4 °F 52.9 °F 30.00 in North 1.0 mph 7.0 mph 47% 0.00 in
18:46 74.5 °F 53.5 °F 30.00 in NNE 3.0 mph 4.0 mph 48% 0.00 in
18:51 74.4 °F 51.7 °F 30.01 in NNE 4.0 mph 6.0 mph 45% 0.00 in
18:56 74.2 °F 51.5 °F 30.00 in NNE 2.0 mph 5.0 mph 45% 0.00 in
19:01 74.0 °F 51.9 °F 30.00 in NNE 5.0 mph 5.0 mph 46% 0.00 in
19:06 73.9 °F 51.8 °F 30.01 in NNE 4.0 mph 7.0 mph 46% 0.00 in
19:11 73.8 °F 51.2 °F 30.01 in NE 9.0 mph 9.0 mph 45% 0.00 in
19:16 73.6 °F 52.2 °F 30.01 in North 4.0 mph 5.0 mph 47% 0.00 in
19:21 73.3 °F 52.5 °F 30.01 in NNE 2.0 mph 6.0 mph 48% 0.00 in
19:26 73.2 °F 52.4 °F 30.01 in NE 3.0 mph 6.0 mph 48% 0.00 in
19:31 73.0 °F 52.7 °F 30.01 in NNE 2.0 mph 3.0 mph 49% 0.00 in
19:36 72.8 °F 52.5 °F 30.01 in NNE 1.0 mph 2.0 mph 49% 0.00 in
19:42 72.6 °F 52.9 °F 30.02 in NNE 1.0 mph 3.0 mph 50% 0.00 in
19:47 72.1 °F 53.0 °F 30.01 in NNE 2.0 mph 3.0 mph 51% 0.00 in
19:52 71.4 °F 52.3 °F 30.01 in NNE 3.0 mph 4.0 mph 51% 0.00 in
19:57 70.8 °F 52.3 °F 30.02 in NNE 1.0 mph 3.0 mph 52% 0.00 in
20:02 70.3 °F 51.9 °F 30.02 in NNE 1.0 mph 3.0 mph 52% 0.00 in
20:07 70.0 °F 51.6 °F 30.02 in NNE 4.0 mph 5.0 mph 52% 0.00 in
20:12 69.7 °F 51.8 °F 30.02 in North 2.0 mph 2.0 mph 53% 0.00 in
20:17 69.3 °F 51.5 °F 30.02 in NE 3.0 mph 3.0 mph 53% 0.00 in
20:22 69.1 °F 51.3 °F 30.02 in NNE 2.0 mph 3.0 mph 53% 0.00 in
20:27 68.9 °F 50.6 °F 30.02 in NE 1.0 mph 3.0 mph 52% 0.00 in
20:32 68.7 °F 50.9 °F 30.02 in NE 1.0 mph 3.0 mph 53% 0.00 in
20:37 68.4 °F 50.6 °F 30.02 in NNE 2.0 mph 3.0 mph 53% 0.00 in
20:42 68.1 °F 50.8 °F 30.02 in NNE 1.0 mph 2.0 mph 54% 0.00 in
20:47 67.9 °F 50.7 °F 30.02 in NNE 2.0 mph 2.0 mph 54% 0.00 in
20:52 67.7 °F 50.5 °F 30.02 in NNE 2.0 mph 2.0 mph 54% 0.00 in
20:57 67.5 °F 50.3 °F 30.03 in NNE 2.0 mph 2.0 mph 54% 0.00 in
21:02 67.3 °F 50.1 °F 30.03 in NNE 1.0 mph 2.0 mph 54% 0.00 in
21:07 67.1 °F 50.4 °F 30.03 in NNE 2.0 mph 2.0 mph 55% 0.00 in
21:12 67.0 °F 50.3 °F 30.03 in NE 2.0 mph 3.0 mph 55% 0.00 in
21:17 67.0 °F 50.3 °F 30.03 in NNE 2.0 mph 3.0 mph 55% 0.00 in
21:22 66.8 °F 50.1 °F 30.03 in NNE 2.0 mph 3.0 mph 55% 0.00 in
21:27 66.5 °F 50.3 °F 30.04 in NE 1.0 mph 2.0 mph 56% 0.00 in
21:33 66.2 °F 50.5 °F 30.04 in NE 2.0 mph 2.0 mph 57% 0.00 in
21:38 66.0 °F 50.3 °F 30.04 in NNE 2.0 mph 3.0 mph 57% 0.00 in
21:43 65.8 °F 50.6 °F 30.04 in NNE 1.0 mph 3.0 mph 58% 0.00 in
21:48 65.6 °F 50.4 °F 30.05 in North 1.0 mph 2.0 mph 58% 0.00 in
21:53 65.5 °F 50.3 °F 30.05 in NNE 1.0 mph 2.0 mph 58% 0.00 in
21:58 65.3 °F 50.6 °F 30.05 in NNE 1.0 mph 3.0 mph 59% 0.00 in
22:03 65.2 °F 50.5 °F 30.05 in NNE 2.0 mph 3.0 mph 59% 0.00 in
22:08 65.2 °F 50.5 °F 30.05 in NNE 2.0 mph 3.0 mph 59% 0.00 in
22:13 65.1 °F 50.4 °F 30.06 in NNE 2.0 mph 3.0 mph 59% 0.00 in
22:18 64.9 °F 50.7 °F 30.06 in NNE 2.0 mph 3.0 mph 60% 0.00 in
22:23 64.8 °F 50.6 °F 30.06 in NNE 2.0 mph 3.0 mph 60% 0.00 in
22:28 64.7 °F 50.5 °F 30.06 in NNE 2.0 mph 3.0 mph 60% 0.00 in
22:33 64.5 °F 50.8 °F 30.06 in NNE 2.0 mph 3.0 mph 61% 0.00 in
22:38 64.3 °F 50.6 °F 30.06 in NNE 2.0 mph 3.0 mph 61% 0.00 in
22:43 64.0 °F 50.7 °F 30.06 in NNE 2.0 mph 2.0 mph 62% 0.00 in
22:48 63.8 °F 50.5 °F 30.06 in NNE 1.0 mph 3.0 mph 62% 0.00 in
22:53 63.6 °F 50.8 °F 30.06 in NNE 1.0 mph 4.0 mph 63% 0.00 in
22:58 63.4 °F 50.6 °F 30.07 in NNE 2.0 mph 3.0 mph 63% 0.00 in
23:03 63.2 °F 50.4 °F 30.06 in North 2.0 mph 2.0 mph 63% 0.00 in
23:08 63.2 °F 50.4 °F 30.07 in NNE 2.0 mph 2.0 mph 63% 0.00 in
23:13 63.0 °F 50.7 °F 30.07 in NE 2.0 mph 2.0 mph 64% 0.00 in
23:18 62.8 °F 50.5 °F 30.07 in NNE 1.0 mph 3.0 mph 64% 0.00 in
23:23 62.6 °F 50.3 °F 30.07 in NE 2.0 mph 3.0 mph 64% 0.00 in
23:28 62.5 °F 50.6 °F 30.07 in NNE 1.0 mph 2.0 mph 65% 0.00 in
23:33 62.4 °F 50.5 °F 30.07 in NNE 3.0 mph 4.0 mph 65% 0.00 in
23:38 62.2 °F 50.3 °F 30.07 in NNE 2.0 mph 4.0 mph 65% 0.00 in
23:43 62.1 °F 50.2 °F 30.07 in NNE 2.0 mph 4.0 mph 65% 0.00 in
23:48 62.0 °F 50.1 °F 30.07 in NE 3.0 mph 5.0 mph 65% 0.00 in
23:54 62.4 °F 50.1 °F 30.07 in NE 4.0 mph 6.0 mph 64% 0.00 in
23:59 62.3 °F 50.0 °F 30.07 in ENE 4.0 mph 6.0 mph 64% 0.00 in
Compliments of Weather Underground